createdAt,value
2022-10-24T00:00:15.730Z,96456.72
2022-10-24T00:02:42.532Z,96459.66
2022-10-24T00:05:13.131Z,96458.94
2022-10-24T00:07:40.786Z,96464.25
2022-10-24T00:10:08.323Z,96460.34
2022-10-24T00:12:35.110Z,96453.25
2022-10-24T00:15:01.717Z,96453.50
2022-10-24T00:17:28.297Z,96450.88
2022-10-24T00:19:54.965Z,96447.22
2022-10-24T00:22:21.645Z,96457.69
2022-10-24T00:24:48.219Z,96451.44
2022-10-24T00:27:14.833Z,96457.00
2022-10-24T00:29:41.398Z,96461.63
2022-10-24T00:32:08.031Z,96454.50
2022-10-24T00:34:34.645Z,96441.91
2022-10-24T00:37:02.080Z,96437.34
2022-10-24T00:39:28.645Z,96439.28
2022-10-24T00:41:58.852Z,96434.69
2022-10-24T00:44:28.647Z,96436.34
2022-10-24T00:47:01.411Z,96432.16
2022-10-24T00:49:35.873Z,96426.84
2022-10-24T00:52:06.561Z,96421.69
2022-10-24T00:54:33.691Z,96408.72
2022-10-24T00:57:06.498Z,96412.50
2022-10-24T00:59:34.935Z,96410.97
2022-10-24T01:02:01.854Z,96401.91
2022-10-24T01:04:28.789Z,96409.56
2022-10-24T01:07:28.655Z,96406.75
2022-10-24T01:10:07.254Z,96398.81
2022-10-24T01:12:48.714Z,96400.47
2022-10-24T01:15:18.046Z,96405.50
2022-10-24T01:18:06.521Z,96403.81
2022-10-24T01:20:42.868Z,96415.56
2022-10-24T01:23:59.934Z,96419.72
2022-10-24T01:27:05.859Z,96423.22
2022-10-24T01:29:55.780Z,96424.34
2022-10-24T01:32:41.095Z,96419.31
2022-10-24T01:35:25.907Z,96411.19
2022-10-24T01:38:02.503Z,96416.22
2022-10-24T01:40:35.554Z,96414.72
2022-10-24T01:43:09.593Z,96418.19
2022-10-24T01:45:40.131Z,96424.34
2022-10-24T01:48:10.788Z,96423.50
2022-10-24T01:50:39.027Z,96416.22
2022-10-24T01:53:08.608Z,96423.63
2022-10-24T01:55:37.781Z,96414.97
2022-10-24T01:58:06.110Z,96419.00
2022-10-24T02:00:32.804Z,96417.19
2022-10-24T02:03:01.419Z,96427.78
2022-10-24T02:05:42.378Z,96425.69
2022-10-24T02:08:14.614Z,96425.97
2022-10-24T02:10:48.814Z,96423.78
2022-10-24T02:13:24.232Z,96413.47
2022-10-24T02:15:53.266Z,96409.81
2022-10-24T02:18:20.665Z,96414.03
2022-10-24T02:21:10.231Z,96408.88
2022-10-24T02:23:51.829Z,96400.47
2022-10-24T02:26:26.892Z,96403.41
2022-10-24T02:28:59.250Z,96407.31
2022-10-24T02:31:31.502Z,96399.09
2022-10-24T02:34:00.412Z,96393.19
2022-10-24T02:36:29.618Z,96379.97
2022-10-24T02:38:57.918Z,96389.19
2022-10-24T02:41:30.093Z,96386.53
2022-10-24T02:44:01.132Z,96381.66
2022-10-24T02:46:28.358Z,96388.22
2022-10-24T02:48:59.210Z,96389.38
2022-10-24T02:51:30.497Z,96391.88
2022-10-24T02:53:59.449Z,96386.31
2022-10-24T02:56:26.485Z,96387.28
2022-10-24T02:58:53.064Z,96387.03
2022-10-24T03:01:19.722Z,96384.53
2022-10-24T03:03:46.687Z,96395.41
2022-10-24T03:06:13.342Z,96392.78
2022-10-24T03:08:39.944Z,96400.84
2022-10-24T03:11:06.611Z,96398.34
2022-10-24T03:13:33.219Z,96404.34
2022-10-24T03:15:59.781Z,96398.19
2022-10-24T03:18:26.370Z,96406.44
2022-10-24T03:20:52.966Z,96399.63
2022-10-24T03:23:19.592Z,96395.56
2022-10-24T03:25:46.195Z,96395.88
2022-10-24T03:28:12.825Z,96398.50
2022-10-24T03:30:39.417Z,96401.31
2022-10-24T03:33:06.102Z,96402.00
2022-10-24T03:35:32.670Z,96400.88
2022-10-24T03:37:59.281Z,96402.28
2022-10-24T03:40:25.824Z,96398.38
2022-10-24T03:42:52.426Z,96397.22
2022-10-24T03:45:19.073Z,96394.03
2022-10-24T03:47:45.673Z,96383.88
2022-10-24T03:50:12.226Z,96384.00
2022-10-24T03:52:38.854Z,96383.88
2022-10-24T03:55:05.857Z,96387.19
2022-10-24T03:57:32.435Z,96381.22
2022-10-24T03:59:59.054Z,96391.66
2022-10-24T04:02:25.662Z,96386.38
2022-10-24T04:04:52.275Z,96380.09
2022-10-24T04:07:18.832Z,96383.72
2022-10-24T04:09:45.401Z,96383.03
2022-10-24T04:12:12.021Z,96390.97
2022-10-24T04:14:38.712Z,96384.28
2022-10-24T04:17:05.490Z,96390.13
2022-10-24T04:19:32.111Z,96388.22
2022-10-24T04:21:59.319Z,96382.91
2022-10-24T04:24:26.550Z,96381.81
2022-10-24T04:26:53.520Z,96388.34
2022-10-24T04:29:20.488Z,96386.53
2022-10-24T04:31:47.166Z,96388.34
2022-10-24T04:34:14.016Z,96395.59
2022-10-24T04:36:40.622Z,96396.28
2022-10-24T04:39:07.312Z,96402.56
2022-10-24T04:41:34.083Z,96407.47
2022-10-24T04:44:00.667Z,96410.94
2022-10-24T04:46:27.346Z,96400.47
2022-10-24T04:48:53.941Z,96406.88
2022-10-24T04:51:22.416Z,96413.88
2022-10-24T04:53:50.203Z,96412.19
2022-10-24T04:56:17.409Z,96417.78
2022-10-24T04:58:44.110Z,96409.41
2022-10-24T05:01:11.200Z,96403.28
2022-10-24T05:03:37.834Z,96413.72
2022-10-24T05:06:04.763Z,96413.03
2022-10-24T05:08:31.336Z,96407.75
2022-10-24T05:10:57.885Z,96411.22
2022-10-24T05:13:24.462Z,96412.75
2022-10-24T05:15:51.015Z,96414.41
2022-10-24T05:18:17.596Z,96413.84
2022-10-24T05:20:44.189Z,96414.13
2022-10-24T05:23:10.938Z,96418.59
2022-10-24T05:25:37.515Z,96419.19
2022-10-24T05:28:04.194Z,96423.06
2022-10-24T05:30:31.079Z,96419.19
2022-10-24T05:32:57.650Z,96414.72
2022-10-24T05:35:24.251Z,96407.00
2022-10-24T05:37:50.872Z,96404.47
2022-10-24T05:40:17.504Z,96398.75
2022-10-24T05:42:44.359Z,96400.13
2022-10-24T05:45:12.640Z,96392.44
2022-10-24T05:47:39.269Z,96398.88
2022-10-24T05:50:06.795Z,96388.53
2022-10-24T05:52:36.275Z,96384.63
2022-10-24T05:55:08.310Z,96386.31
2022-10-24T05:57:38.430Z,96388.09
2022-10-24T06:00:09.418Z,96398.13
2022-10-24T06:02:39.804Z,96410.69
2022-10-24T06:05:07.721Z,96407.09
2022-10-24T06:07:35.241Z,96405.53
2022-10-24T06:10:03.390Z,96415.88
2022-10-24T06:12:30.066Z,96418.94
2022-10-24T06:14:57.424Z,96416.16
2022-10-24T06:17:24.034Z,96419.66
2022-10-24T06:19:51.181Z,96415.91
2022-10-24T06:22:19.237Z,96418.16
2022-10-24T06:24:45.935Z,96421.47
2022-10-24T06:27:12.773Z,96425.66
2022-10-24T06:29:39.415Z,96416.63
2022-10-24T06:32:06.020Z,96421.09
2022-10-24T06:34:32.677Z,96421.66
2022-10-24T06:36:59.404Z,96414.84
2022-10-24T06:39:26.061Z,96416.50
2022-10-24T06:41:52.717Z,96415.22
2022-10-24T06:44:19.710Z,96417.34
2022-10-24T06:46:46.331Z,96410.06
2022-10-24T06:49:13.705Z,96404.09
2022-10-24T06:51:41.256Z,96400.44
2022-10-24T06:54:08.122Z,96399.31
2022-10-24T06:56:34.742Z,96400.59
2022-10-24T06:59:01.377Z,96413.41
2022-10-24T07:01:28.745Z,96411.59
2022-10-24T07:03:55.563Z,96415.91
2022-10-24T07:06:25.572Z,96403.06
2022-10-24T07:08:53.972Z,96407.69
2022-10-24T07:11:20.895Z,96409.75
2022-10-24T07:13:47.725Z,96412.97
2022-10-24T07:16:14.828Z,96416.88
2022-10-24T07:18:42.346Z,96416.88
2022-10-24T07:21:13.902Z,96414.34
2022-10-24T07:23:40.560Z,96411.41
2022-10-24T07:26:10.855Z,96420.19
2022-10-24T07:28:38.897Z,96424.38
2022-10-24T07:31:06.101Z,96425.47
2022-10-24T07:33:32.917Z,96430.06
2022-10-24T07:35:59.569Z,96433.81
2022-10-24T07:38:26.469Z,96434.66
2022-10-24T07:40:53.129Z,96435.84
2022-10-24T07:43:19.675Z,96435.28
2022-10-24T07:45:49.180Z,96451.63
2022-10-24T07:48:18.652Z,96458.31
2022-10-24T07:50:46.906Z,96456.31
2022-10-24T07:53:14.065Z,96465.19
2022-10-24T07:55:42.261Z,96452.34
2022-10-24T07:58:09.608Z,96455.03
2022-10-24T08:00:39.105Z,96457.19
2022-10-24T08:03:09.193Z,96457.56
2022-10-24T08:05:38.367Z,96462.88
2022-10-24T08:08:30.789Z,96454.91
2022-10-24T08:10:52.117Z,96460.63
2022-10-24T08:13:18.711Z,96459.94
2022-10-24T08:15:45.273Z,96459.78
2022-10-24T08:18:11.885Z,96444.06
2022-10-24T08:20:38.507Z,96446.09
2022-10-24T08:23:05.171Z,96454.31
2022-10-24T08:25:31.812Z,96444.22
2022-10-24T08:27:58.456Z,96440.84
2022-10-24T08:30:25.076Z,96444.94
2022-10-24T08:32:51.657Z,96434.03
2022-10-24T08:35:19.681Z,96441.00
2022-10-24T08:37:46.301Z,96431.03
2022-10-24T08:40:19.189Z,96439.59
2022-10-24T08:42:48.170Z,96425.09
2022-10-24T08:45:52.732Z,96427.53
2022-10-24T08:48:28.926Z,96434.75
2022-10-24T08:51:05.683Z,96431.88
2022-10-24T08:53:33.144Z,96434.97
2022-10-24T08:56:01.523Z,96433.38
2022-10-24T08:58:34.352Z,96433.16
2022-10-24T09:01:04.917Z,96440.16
2022-10-24T09:03:55.066Z,96440.88
2022-10-24T09:06:26.174Z,96439.63
2022-10-24T09:08:56.007Z,96454.50
2022-10-24T09:11:43.962Z,96440.16
2022-10-24T09:14:20.821Z,96453.53
2022-10-24T09:16:54.636Z,96442.69
2022-10-24T09:19:24.829Z,96443.69
2022-10-24T09:21:53.811Z,96441.03
2022-10-24T09:24:38.907Z,96454.41
2022-10-24T09:27:11.842Z,96445.56
2022-10-24T09:29:38.976Z,96447.41
2022-10-24T09:32:15.401Z,96449.59
2022-10-24T09:34:42.035Z,96451.91
2022-10-24T09:37:32.473Z,96454.91
2022-10-24T09:40:32.940Z,96472.59
2022-10-24T09:43:16.811Z,96467.09
2022-10-24T09:45:59.175Z,96478.41
2022-10-24T09:48:32.662Z,96474.41
2022-10-24T09:51:00.128Z,96478.28
2022-10-24T09:53:38.478Z,96489.94
2022-10-24T09:56:12.274Z,96495.25
2022-10-24T09:58:40.090Z,96489.72
2022-10-24T10:01:19.338Z,96484.97
2022-10-24T10:04:06.086Z,96504.47
2022-10-24T10:06:35.813Z,96500.00
2022-10-24T10:09:11.375Z,96511.00
2022-10-24T10:11:40.768Z,96514.06
2022-10-24T10:14:28.384Z,96516.63
2022-10-24T10:17:00.972Z,96519.53
2022-10-24T10:19:29.866Z,96535.25
2022-10-24T10:21:58.238Z,96530.94
2022-10-24T10:24:36.016Z,96532.97
2022-10-24T10:27:23.003Z,96538.31
2022-10-24T10:29:49.575Z,96535.09
2022-10-24T10:32:32.109Z,96544.66
2022-10-24T10:35:11.431Z,96538.78
2022-10-24T10:37:51.128Z,96541.28
2022-10-24T10:40:34.061Z,96543.66
2022-10-24T10:43:37.697Z,96545.78
2022-10-24T10:46:04.221Z,96541.09
2022-10-24T10:48:41.018Z,96556.47
2022-10-24T10:51:41.947Z,96543.28
2022-10-24T10:54:40.865Z,96560.31
2022-10-24T10:57:12.699Z,96556.66
2022-10-24T10:59:42.203Z,96557.66
2022-10-24T11:02:27.352Z,96561.81
2022-10-24T11:04:59.350Z,96571.00
2022-10-24T11:07:41.513Z,96565.97
2022-10-24T11:10:17.403Z,96560.50
2022-10-24T11:12:46.407Z,96565.63
2022-10-24T11:15:15.681Z,96563.00
2022-10-24T11:17:50.053Z,96576.66
2022-10-24T11:20:30.719Z,96569.00
2022-10-24T11:23:24.719Z,96574.59
2022-10-24T11:26:06.694Z,96580.63
2022-10-24T11:28:36.372Z,96585.53
2022-10-24T11:31:25.220Z,96580.00
2022-10-24T11:34:00.237Z,96566.00
2022-10-24T11:36:45.878Z,96579.66
2022-10-24T11:39:22.392Z,96573.31
2022-10-24T11:42:12.022Z,96558.69
2022-10-24T11:45:01.495Z,96571.78
2022-10-24T11:47:28.025Z,96573.00
2022-10-24T11:50:20.619Z,96566.25
2022-10-24T11:52:52.697Z,96566.22
2022-10-24T11:55:37.271Z,96576.56
2022-10-24T11:58:05.568Z,96569.16
2022-10-24T12:00:54.740Z,96581.16
2022-10-24T12:03:24.028Z,96577.84
2022-10-24T12:06:12.363Z,96569.66
2022-10-24T12:09:07.011Z,96579.84
2022-10-24T12:11:57.695Z,96560.16
2022-10-24T12:14:27.004Z,96566.31
2022-10-24T12:16:59.329Z,96570.97
2022-10-24T12:19:28.086Z,96566.31
2022-10-24T12:22:01.580Z,96565.75
2022-10-24T12:24:38.786Z,96568.13
2022-10-24T12:27:09.096Z,96560.78
2022-10-24T12:29:37.034Z,96574.72
2022-10-24T12:32:33.528Z,96569.22
2022-10-24T12:37:49.274Z,96567.97
2022-10-24T12:40:48.610Z,96584.00
2022-10-24T12:43:26.556Z,96584.97
2022-10-24T12:45:53.281Z,96582.81
2022-10-24T12:48:30.854Z,96582.78
2022-10-24T12:51:04.110Z,96585.53
2022-10-24T12:53:33.810Z,96591.44
2022-10-24T12:56:00.869Z,96592.34
2022-10-24T12:58:34.177Z,96599.13
2022-10-24T13:01:05.589Z,96590.25
2022-10-24T13:03:50.778Z,96588.97
2022-10-24T13:06:32.337Z,96593.31
2022-10-24T13:09:30.697Z,96585.16
2022-10-24T13:12:07.859Z,96583.63
2022-10-24T13:14:43.443Z,96595.53
2022-10-24T13:17:36.229Z,96584.75
2022-10-24T13:20:07.475Z,96591.38
2022-10-24T13:22:37.010Z,96581.84
2022-10-24T13:25:34.669Z,96581.41
2022-10-24T13:28:25.299Z,96585.97
2022-10-24T13:31:17.617Z,96581.50
2022-10-24T13:33:45.772Z,96571.13
2022-10-24T13:36:27.988Z,96581.59
2022-10-24T13:39:04.977Z,96575.75
2022-10-24T13:41:35.223Z,96569.81
2022-10-24T13:44:36.872Z,96581.19
2022-10-24T13:47:19.138Z,96581.91
2022-10-24T13:50:01.195Z,96576.22
2022-10-24T13:52:49.443Z,96573.44
2022-10-24T13:55:29.175Z,96570.13
2022-10-24T13:57:59.211Z,96562.97
2022-10-24T14:00:32.195Z,96566.59
2022-10-24T14:03:02.280Z,96563.94
2022-10-24T14:05:36.302Z,96571.97
2022-10-24T14:08:04.167Z,96575.47
2022-10-24T14:10:31.009Z,96565.00
2022-10-24T14:12:59.517Z,96575.06
2022-10-24T14:15:30.447Z,96576.06
2022-10-24T14:18:13.493Z,96566.22
2022-10-24T14:20:41.109Z,96570.72
2022-10-24T14:23:31.523Z,96570.09
2022-10-24T14:26:11.083Z,96580.06
2022-10-24T14:28:44.884Z,96592.59
2022-10-24T14:31:27.708Z,96595.94
2022-10-24T14:33:56.309Z,96603.53
2022-10-24T14:36:29.500Z,96609.13
2022-10-24T14:38:58.775Z,96609.38
2022-10-24T14:41:30.941Z,96603.31
2022-10-24T14:43:58.974Z,96606.81
2022-10-24T14:46:37.809Z,96615.44
2022-10-24T14:49:19.722Z,96616.47
2022-10-24T14:51:48.794Z,96613.47
2022-10-24T14:54:40.107Z,96612.97
2022-10-24T14:57:17.254Z,96619.50
2022-10-24T14:59:46.842Z,96623.50
2022-10-24T15:02:37.524Z,96616.78
2022-10-24T15:05:19.096Z,96622.97
2022-10-24T15:08:09.208Z,96622.41
2022-10-24T15:10:35.438Z,96634.13
2022-10-24T15:13:17.819Z,96639.41
2022-10-24T15:15:44.329Z,96638.78
2022-10-24T15:18:18.818Z,96631.66
2022-10-24T15:20:47.745Z,96644.81
2022-10-24T15:23:20.965Z,96646.31
2022-10-24T15:25:59.922Z,96640.94
2022-10-24T15:29:01.954Z,96639.53
2022-10-24T15:31:30.110Z,96637.53
2022-10-24T15:33:56.767Z,96639.13
2022-10-24T15:36:28.580Z,96633.25
2022-10-24T15:39:00.826Z,96637.66
2022-10-24T15:41:27.993Z,96635.63
2022-10-24T15:43:55.694Z,96636.00
2022-10-24T15:46:22.534Z,96636.91
2022-10-24T15:48:49.784Z,96635.56
2022-10-24T15:51:18.777Z,96630.75
2022-10-24T15:53:46.175Z,96630.38
2022-10-24T15:56:12.896Z,96628.69
2022-10-24T15:58:40.625Z,96627.47
2022-10-24T16:01:08.437Z,96626.25
2022-10-24T16:03:36.090Z,96622.06
2022-10-24T16:06:04.454Z,96625.16
2022-10-24T16:08:31.658Z,96614.00
2022-10-24T16:10:58.292Z,96619.63
2022-10-24T16:13:25.005Z,96621.47
2022-10-24T16:15:51.694Z,96621.94
2022-10-24T16:18:18.446Z,96622.56
2022-10-24T16:20:45.107Z,96628.75
2022-10-24T16:23:14.789Z,96630.31
2022-10-24T16:25:41.602Z,96633.03
2022-10-24T16:28:08.274Z,96636.25
2022-10-24T16:30:37.350Z,96638.38
2022-10-24T16:33:03.949Z,96637.72
2022-10-24T16:35:33.174Z,96655.19
2022-10-24T16:38:00.935Z,96657.28
2022-10-24T16:40:28.875Z,96653.91
2022-10-24T16:42:57.898Z,96666.63
2022-10-24T16:45:25.666Z,96664.66
2022-10-24T16:47:52.466Z,96654.19
2022-10-24T16:50:24.182Z,96663.00
2022-10-24T16:52:56.759Z,96674.59
2022-10-24T16:55:23.863Z,96662.16
2022-10-24T16:57:50.434Z,96683.09
2022-10-24T17:00:19.383Z,96681.28
2022-10-24T17:02:50.889Z,96688.72
2022-10-24T17:05:23.216Z,96693.19
2022-10-24T17:07:50.401Z,96697.50
2022-10-24T17:10:20.700Z,96698.19
2022-10-24T17:12:50.849Z,96699.59
2022-10-24T17:15:22.016Z,96705.47
2022-10-24T17:17:49.867Z,96706.03
2022-10-24T17:20:17.447Z,96708.25
2022-10-24T17:22:45.424Z,96704.31
2022-10-24T17:25:24.427Z,96709.63
2022-10-24T17:27:51.839Z,96709.09
2022-10-24T17:30:21.962Z,96704.31
2022-10-24T17:32:49.352Z,96702.94
2022-10-24T17:35:18.920Z,96693.88
2022-10-24T17:38:20.469Z,96696.38
2022-10-24T17:40:49.086Z,96698.34
2022-10-24T17:43:23.253Z,96713.03
2022-10-24T17:45:50.534Z,96710.78
2022-10-24T17:48:17.543Z,96714.00
2022-10-24T17:50:44.479Z,96713.03
2022-10-24T17:53:12.557Z,96698.19
2022-10-24T17:55:47.722Z,96696.00
2022-10-24T17:58:15.822Z,96708.72
2022-10-24T18:00:44.081Z,96696.59
2022-10-24T18:03:11.185Z,96698.53
2022-10-24T18:05:38.771Z,96701.47
2022-10-24T18:08:08.168Z,96702.44
2022-10-24T18:10:37.102Z,96694.19
2022-10-24T18:13:03.783Z,96709.69
2022-10-24T18:15:30.578Z,96707.44
2022-10-24T18:17:57.155Z,96710.53
2022-10-24T18:20:24.320Z,96716.09
2022-10-24T18:22:51.130Z,96721.09
2022-10-24T18:25:22.695Z,96710.22
2022-10-24T18:27:51.316Z,96721.38
2022-10-24T18:30:19.498Z,96722.50
2022-10-24T18:32:46.967Z,96716.63
2022-10-24T18:35:14.313Z,96718.19
2022-10-24T18:37:40.947Z,96716.38
2022-10-24T18:40:09.496Z,96721.38
2022-10-24T18:42:50.820Z,96713.03
2022-10-24T18:45:21.477Z,96702.56
2022-10-24T18:47:49.416Z,96709.56
2022-10-24T18:50:19.223Z,96710.78
2022-10-24T18:53:10.697Z,96715.53
2022-10-24T18:55:37.658Z,96711.22
2022-10-24T18:58:04.568Z,96715.13
2022-10-24T19:00:32.922Z,96721.53
2022-10-24T19:03:11.592Z,96726.84
2022-10-24T19:05:44.014Z,96724.03
2022-10-24T19:08:17.234Z,96721.09
2022-10-24T19:10:44.333Z,96748.84
2022-10-24T19:13:11.058Z,96739.72
2022-10-24T19:15:42.573Z,96746.22
2022-10-24T19:18:13.937Z,96756.41
2022-10-24T19:20:42.313Z,96750.94
2022-10-24T19:23:13.790Z,96748.94
2022-10-24T19:25:40.758Z,96751.16
2022-10-24T19:28:10.806Z,96749.59
2022-10-24T19:30:40.735Z,96747.78
2022-10-24T19:33:07.315Z,96754.19
2022-10-24T19:35:39.002Z,96748.31
2022-10-24T19:38:05.736Z,96751.22
2022-10-24T19:40:32.265Z,96757.16
2022-10-24T19:42:58.886Z,96751.72
2022-10-24T19:45:25.528Z,96744.88
2022-10-24T19:47:55.678Z,96742.75
2022-10-24T19:50:22.636Z,96743.66
2022-10-24T19:52:49.258Z,96748.78
2022-10-24T19:55:15.900Z,96751.69
2022-10-24T19:57:42.657Z,96758.78
2022-10-24T20:00:09.881Z,96756.84
2022-10-24T20:02:39.287Z,96763.81
2022-10-24T20:05:06.414Z,96763.16
2022-10-24T20:07:33.600Z,96769.16
2022-10-24T20:10:00.209Z,96761.63
2022-10-24T20:12:27.073Z,96775.84
2022-10-24T20:14:53.656Z,96780.03
2022-10-24T20:17:20.233Z,96775.72
2022-10-24T20:19:46.814Z,96779.69
2022-10-24T20:22:13.415Z,96779.75
2022-10-24T20:24:40.038Z,96775.50
2022-10-24T20:29:38.196Z,96783.38
2022-10-24T20:32:05.106Z,96787.06
2022-10-24T20:34:31.692Z,96789.72
2022-10-24T20:36:58.301Z,96784.88
2022-10-24T20:39:26.195Z,96795.34
2022-10-24T20:41:54.157Z,96794.81
2022-10-24T20:44:21.510Z,96798.19
2022-10-24T20:46:48.087Z,96795.53
2022-10-24T20:49:14.718Z,96801.09
2022-10-24T20:51:42.833Z,96808.78
2022-10-24T20:54:10.566Z,96790.09
2022-10-24T20:56:42.100Z,96808.63
2022-10-24T20:59:09.077Z,96811.56
2022-10-24T21:01:35.681Z,96807.63
2022-10-24T21:04:02.393Z,96812.34
2022-10-24T21:06:31.865Z,96812.34
2022-10-24T21:11:34.825Z,96822.94
2022-10-24T21:14:07.157Z,96830.47
2022-10-24T21:16:34.566Z,96829.91
2022-10-24T21:19:01.439Z,96837.41
2022-10-24T21:21:28.238Z,96840.31
2022-10-24T21:24:02.252Z,96836.38
2022-10-24T21:26:32.787Z,96848.03
2022-10-24T21:29:08.708Z,96847.06
2022-10-24T21:31:45.894Z,96852.16
2022-10-24T21:34:12.497Z,96859.13
2022-10-24T21:36:39.088Z,96861.91
2022-10-24T21:39:05.673Z,96861.63
2022-10-24T21:41:33.303Z,96867.41
2022-10-24T21:43:59.930Z,96863.84
2022-10-24T21:46:30.566Z,96859.53
2022-10-24T21:48:57.417Z,96856.31
2022-10-24T21:51:28.163Z,96860.28
2022-10-24T21:53:58.043Z,96858.94
2022-10-24T21:56:30.215Z,96852.69
2022-10-24T22:01:37.060Z,96855.56
2022-10-24T22:04:04.958Z,96856.81
2022-10-24T22:06:33.046Z,96869.44
2022-10-24T22:09:00.021Z,96865.59
2022-10-24T22:11:31.310Z,96869.84
2022-10-24T22:13:58.400Z,96868.16
2022-10-24T22:16:27.778Z,96861.25
2022-10-24T22:18:55.037Z,96864.22
2022-10-24T22:21:33.766Z,96877.59
2022-10-24T22:26:39.306Z,96881.78
2022-10-24T22:29:08.114Z,96885.47
2022-10-24T22:31:35.331Z,96881.28
2022-10-24T22:34:02.420Z,96885.59
2022-10-24T22:36:59.589Z,96883.66
2022-10-24T22:39:27.524Z,96875.97
2022-10-24T22:41:54.522Z,96887.56
2022-10-24T22:44:21.963Z,96888.84
2022-10-24T22:47:13.622Z,96889.88
2022-10-24T22:50:21.486Z,96888.31
2022-10-24T22:52:51.414Z,96898.06
2022-10-24T22:55:28.308Z,96891.25
2022-10-24T22:57:55.235Z,96891.75
2022-10-24T23:00:22.177Z,96897.19
2022-10-24T23:02:51.568Z,96893.34
2022-10-24T23:05:35.666Z,96898.72
2022-10-24T23:08:09.855Z,96902.47
2022-10-24T23:10:39.556Z,96899.31
2022-10-24T23:13:06.676Z,96902.25
2022-10-24T23:15:33.525Z,96895.75
2022-10-24T23:18:00.337Z,96907.44
2022-10-24T23:20:41.654Z,96903.75
2022-10-24T23:23:28.196Z,96898.94
2022-10-24T23:26:09.080Z,96903.75
2022-10-24T23:28:51.255Z,96907.44
2022-10-24T23:31:18.072Z,96920.44
2022-10-24T23:33:44.889Z,96920.78
2022-10-24T23:36:22.210Z,96911.56
2022-10-24T23:38:50.885Z,96926.84
2022-10-24T23:41:17.849Z,96920.72
2022-10-24T23:43:44.731Z,96916.03
2022-10-24T23:46:36.230Z,96925.03
2022-10-24T23:49:14.622Z,96918.88
2022-10-24T23:51:46.611Z,96930.06
2022-10-24T23:54:13.907Z,96925.16
2022-10-24T23:56:40.831Z,96916.59
2022-10-24T23:59:07.467Z,96930.59
